Time;durP1;ratioP1;P1;durP2;ratioP2;P2;SDS_P1;SDS_P2;PMS_P1;PMS_P2;Temp;Humidity;BMP_temperature;BMP_pressure;BME280_temperature;BME280_humidity;BME280_pressure;Samples;Min_cycle;Max_cycle;Signal;HPM_P1;HPM_P2
2023/06/04 00:00:46;;;;;;;3.80;1.50;;;;;;;;;;5090585;28;20020;-69
2023/06/04 00:03:12;;;;;;;3.40;1.42;;;;;;;;;;5090377;28;20028;-70
2023/06/04 00:05:37;;;;;;;5.65;1.65;;;;;;;;;;5090220;28;20028;-69
2023/06/04 00:08:02;;;;;;;2.60;1.30;;;;;;;;;;5090372;28;20032;-70
2023/06/04 00:10:28;;;;;;;4.82;2.42;;;;;;;;;;5091091;28;20012;-70
2023/06/04 00:12:53;;;;;;;8.27;3.03;;;;;;;;;;5091499;28;20036;-68
2023/06/04 00:15:19;;;;;;;4.57;2.35;;;;;;;;;;5090682;28;20457;-70
2023/06/04 00:17:44;;;;;;;4.35;2.53;;;;;;;;;;5091108;28;20081;-70
2023/06/04 00:20:10;;;;;;;6.38;2.85;;;;;;;;;;5091427;28;20040;-70
2023/06/04 00:22:36;;;;;;;6.93;3.13;;;;;;;;;;5091056;28;20035;-69
2023/06/04 00:25:03;;;;;;;6.32;2.90;;;;;;;;;;5090960;28;20488;-70
2023/06/04 00:27:28;;;;;;;5.88;3.08;;;;;;;;;;5091109;28;20445;-70
2023/06/04 00:29:53;;;;;;;6.28;3.20;;;;;;;;;;5091045;28;20111;-70
2023/06/04 00:32:19;;;;;;;5.18;3.03;;;;;;;;;;5091192;28;20176;-71
2023/06/04 00:34:51;;;;;;;6.75;3.40;;;;;;;;;;5091103;28;20527;-68
2023/06/04 00:37:17;;;;;;;6.63;3.10;;;;;;;;;;5089323;28;20427;-68
2023/06/04 00:39:42;;;;;;;4.78;2.90;;;;;;;;;;5104598;28;20054;-72
2023/06/04 00:42:08;;;;;;;5.50;3.38;;;;;;;;;;5075558;28;20059;-70
2023/06/04 00:44:33;;;;;;;5.57;2.67;;;;;;;;;;5070692;28;20056;-69
2023/06/04 00:46:59;;;;;;;6.35;2.72;;;;;;;;;;5070553;28;20051;-72
2023/06/04 00:49:25;;;;;;;5.93;2.30;;;;;;;;;;5069412;28;20381;-70
2023/06/04 00:51:50;;;;;;;5.95;2.28;;;;;;;;;;5070364;28;20107;-72
2023/06/04 00:54:17;;;;;;;5.07;2.63;;;;;;;;;;5070511;28;20062;-70
2023/06/04 00:56:44;;;;;;;7.40;3.00;;;;;;;;;;5070353;28;20343;-69
2023/06/04 00:59:10;;;;;;;5.85;2.60;;;;;;;;;;5079265;28;20024;-68
2023/06/04 01:01:53;;;;;;;5.55;2.40;;;;;;;;;;5090684;28;20089;-70
2023/06/04 01:04:44;;;;;;;4.63;2.38;;;;;;;;;;5090664;28;20052;-65
2023/06/04 01:07:12;;;;;;;5.47;2.63;;;;;;;;;;5090457;28;20062;-65
2023/06/04 01:09:38;;;;;;;8.77;2.80;;;;;;;;;;5090644;28;20028;-72
2023/06/04 01:12:05;;;;;;;6.03;2.45;;;;;;;;;;5090572;28;20056;-70
2023/06/04 01:14:33;;;;;;;4.85;2.20;;;;;;;;;;5090518;28;20477;-68
2023/06/04 01:17:04;;;;;;;4.70;2.38;;;;;;;;;;5090420;28;20099;-70
2023/06/04 01:19:51;;;;;;;5.05;2.75;;;;;;;;;;5090573;28;20024;-67
2023/06/04 01:22:43;;;;;;;5.20;2.30;;;;;;;;;;5090240;28;20443;-72
2023/06/04 01:25:19;;;;;;;6.25;2.38;;;;;;;;;;5047486;28;20033;-70
2023/06/04 01:27:50;;;;;;;4.25;2.05;;;;;;;;;;5047387;28;20390;-66
2023/06/04 01:30:16;;;;;;;5.22;2.03;;;;;;;;;;5047435;28;20057;-68
2023/06/04 01:32:42;;;;;;;8.77;2.58;;;;;;;;;;5047434;28;20037;-70
2023/06/04 01:35:11;;;;;;;5.97;2.42;;;;;;;;;;5034015;28;20071;-68
2023/06/04 01:37:37;;;;;;;6.22;2.40;;;;;;;;;;5051106;28;20090;-70
2023/06/04 01:40:03;;;;;;;7.65;2.38;;;;;;;;;;5062212;28;20247;-70
2023/06/04 01:42:28;;;;;;;6.00;2.38;;;;;;;;;;5051356;28;20041;-68
2023/06/04 01:44:54;;;;;;;5.60;2.72;;;;;;;;;;5051246;28;20345;-69
2023/06/04 01:47:19;;;;;;;11.93;2.70;;;;;;;;;;5051107;28;20053;-69
2023/06/04 01:49:45;;;;;;;8.05;3.38;;;;;;;;;;5051334;28;20033;-69
2023/06/04 01:52:11;;;;;;;4.75;2.63;;;;;;;;;;5051177;28;20349;-68
2023/06/04 01:54:38;;;;;;;6.28;2.40;;;;;;;;;;5051042;28;20398;-69
2023/06/04 01:57:05;;;;;;;5.03;2.30;;;;;;;;;;5051127;28;20037;-68
2023/06/04 01:59:31;;;;;;;3.90;2.40;;;;;;;;;;5051166;28;20103;-69
2023/06/04 02:01:57;;;;;;;5.05;2.70;;;;;;;;;;5069453;28;20036;-70
2023/06/04 02:04:23;;;;;;;4.00;2.30;;;;;;;;;;5093734;28;20035;-70
2023/06/04 02:06:50;;;;;;;5.25;2.40;;;;;;;;;;5093843;28;20022;-70
2023/06/04 02:09:15;;;;;;;5.88;2.50;;;;;;;;;;5093893;28;20050;-69
2023/06/04 02:11:41;;;;;;;6.05;2.60;;;;;;;;;;5093847;28;20485;-70
2023/06/04 02:14:06;;;;;;;6.53;2.60;;;;;;;;;;5093793;28;20031;-68
2023/06/04 02:16:32;;;;;;;4.43;2.25;;;;;;;;;;5093692;28;20082;-68
2023/06/04 02:18:58;;;;;;;7.80;2.42;;;;;;;;;;5093296;28;20020;-70
2023/06/04 02:21:24;;;;;;;5.32;2.10;;;;;;;;;;5093376;28;20032;-70
2023/06/04 02:23:50;;;;;;;5.60;2.20;;;;;;;;;;5093576;28;20027;-70
2023/06/04 02:26:15;;;;;;;4.35;2.17;;;;;;;;;;5093493;28;20023;-68
2023/06/04 02:28:41;;;;;;;6.65;2.25;;;;;;;;;;5093400;28;20035;-68
2023/06/04 02:31:07;;;;;;;3.90;2.15;;;;;;;;;;5093412;28;20020;-68
2023/06/04 02:33:32;;;;;;;8.23;2.40;;;;;;;;;;5093441;28;20474;-69
2023/06/04 02:35:57;;;;;;;6.03;2.60;;;;;;;;;;5093640;28;20374;-69
2023/06/04 02:38:23;;;;;;;8.90;2.85;;;;;;;;;;5096122;28;20028;-70
2023/06/04 02:40:48;;;;;;;11.38;3.05;;;;;;;;;;5113615;28;20028;-69
2023/06/04 02:43:14;;;;;;;11.45;2.85;;;;;;;;;;5113854;28;20016;-70
2023/06/04 02:45:39;;;;;;;11.20;2.97;;;;;;;;;;5111290;28;20115;-68
2023/06/04 02:48:05;;;;;;;12.50;3.25;;;;;;;;;;5113201;28;20192;-70
2023/06/04 02:50:30;;;;;;;15.73;2.97;;;;;;;;;;5113539;28;20027;-70
2023/06/04 02:52:55;;;;;;;10.70;2.97;;;;;;;;;;5113419;28;20023;-69
2023/06/04 02:55:21;;;;;;;6.18;2.45;;;;;;;;;;5113284;28;20024;-70
2023/06/04 02:57:46;;;;;;;7.55;2.60;;;;;;;;;;5111912;28;20039;-69
2023/06/04 03:00:13;;;;;;;7.25;2.78;;;;;;;;;;5095686;28;20024;-71
2023/06/04 03:02:43;;;;;;;10.55;3.25;;;;;;;;;;5092517;28;20028;-70
2023/06/04 03:05:10;;;;;;;8.10;2.85;;;;;;;;;;5092762;28;20499;-70
2023/06/04 03:07:37;;;;;;;8.00;2.70;;;;;;;;;;5092679;28;20122;-69
2023/06/04 03:10:04;;;;;;;8.60;2.63;;;;;;;;;;5092633;28;20012;-69
2023/06/04 03:12:29;;;;;;;11.80;3.70;;;;;;;;;;5092607;28;20064;-68
2023/06/04 03:14:55;;;;;;;10.02;3.20;;;;;;;;;;5092475;28;20059;-70
2023/06/04 03:17:21;;;;;;;9.40;2.50;;;;;;;;;;5090874;28;20069;-69
2023/06/04 03:19:47;;;;;;;6.97;2.33;;;;;;;;;;5092540;28;20027;-70
2023/06/04 03:22:13;;;;;;;7.50;2.28;;;;;;;;;;5092525;28;20455;-67
2023/06/04 03:24:40;;;;;;;6.97;2.60;;;;;;;;;;5092185;28;20047;-70
2023/06/04 03:27:07;;;;;;;6.20;2.33;;;;;;;;;;5092088;28;20042;-68
2023/06/04 03:29:33;;;;;;;4.65;2.50;;;;;;;;;;5092303;28;20024;-71
2023/06/04 03:31:59;;;;;;;7.75;3.05;;;;;;;;;;5091896;28;20016;-69
2023/06/04 03:34:25;;;;;;;6.57;2.10;;;;;;;;;;5092141;28;20063;-70
2023/06/04 03:36:54;;;;;;;6.28;2.63;;;;;;;;;;5091876;28;20119;-70
2023/06/04 03:39:21;;;;;;;4.70;2.13;;;;;;;;;;5102357;28;20083;-69
2023/06/04 03:41:46;;;;;;;7.82;2.50;;;;;;;;;;5112524;28;20023;-71
2023/06/04 03:44:16;;;;;;;5.60;2.30;;;;;;;;;;5112523;28;20211;-71
2023/06/04 03:46:42;;;;;;;7.17;2.57;;;;;;;;;;5112037;28;20067;-70
2023/06/04 03:49:10;;;;;;;4.63;2.63;;;;;;;;;;5112300;28;20295;-70
2023/06/04 03:51:36;;;;;;;8.35;3.22;;;;;;;;;;5112393;28;20030;-70
2023/06/04 03:54:02;;;;;;;6.95;3.22;;;;;;;;;;5112341;28;20028;-69
2023/06/04 03:56:28;;;;;;;5.70;3.25;;;;;;;;;;5111896;28;20366;-68
2023/06/04 03:58:53;;;;;;;6.32;3.55;;;;;;;;;;5105488;28;20097;-64
2023/06/04 04:01:19;;;;;;;5.65;2.90;;;;;;;;;;5091531;28;20469;-68
2023/06/04 04:03:48;;;;;;;5.88;2.85;;;;;;;;;;5091618;28;20056;-69
2023/06/04 04:06:13;;;;;;;5.35;2.40;;;;;;;;;;5091646;28;20078;-70
2023/06/04 04:08:43;;;;;;;4.88;2.85;;;;;;;;;;5091604;28;20028;-65
2023/06/04 04:11:12;;;;;;;7.03;2.53;;;;;;;;;;5091548;28;20131;-69
2023/06/04 04:13:37;;;;;;;5.57;2.47;;;;;;;;;;5091503;28;20099;-70
2023/06/04 04:16:03;;;;;;;4.00;2.20;;;;;;;;;;5089884;28;20119;-69
2023/06/04 04:18:32;;;;;;;7.20;2.15;;;;;;;;;;5090831;28;20024;-69
2023/06/04 04:20:58;;;;;;;3.65;1.90;;;;;;;;;;5091360;28;20231;-66
2023/06/04 04:23:23;;;;;;;4.45;2.10;;;;;;;;;;5091274;28;20025;-70
2023/06/04 04:25:49;;;;;;;3.92;2.00;;;;;;;;;;5091019;28;20024;-65
2023/06/04 04:28:17;;;;;;;5.88;1.83;;;;;;;;;;5091359;28;20542;-70
2023/06/04 04:30:44;;;;;;;3.45;1.95;;;;;;;;;;5090967;28;20485;-70
2023/06/04 04:33:10;;;;;;;5.25;1.83;;;;;;;;;;5091070;28;20023;-69
2023/06/04 04:35:35;;;;;;;3.33;2.00;;;;;;;;;;5091235;28;20487;-70
2023/06/04 04:38:04;;;;;;;3.30;1.80;;;;;;;;;;5090852;28;20032;-67
2023/06/04 04:40:30;;;;;;;5.03;1.90;;;;;;;;;;5090748;28;20111;-70
2023/06/04 04:42:56;;;;;;;4.97;1.92;;;;;;;;;;5090927;28;20111;-68
2023/06/04 04:45:22;;;;;;;3.67;1.60;;;;;;;;;;5090606;28;20393;-69
2023/06/04 04:47:47;;;;;;;4.75;1.83;;;;;;;;;;5090957;28;20482;-65
2023/06/04 04:50:13;;;;;;;5.45;2.17;;;;;;;;;;5090633;28;20028;-70
2023/06/04 04:52:38;;;;;;;3.88;1.60;;;;;;;;;;5090607;28;20055;-70
2023/06/04 04:55:04;;;;;;;3.97;1.58;;;;;;;;;;5090843;28;20028;-68
2023/06/04 04:57:30;;;;;;;3.72;1.73;;;;;;;;;;5090662;28;20046;-68
2023/06/04 04:59:56;;;;;;;3.63;1.90;;;;;;;;;;5090496;28;20032;-68
2023/06/04 05:02:21;;;;;;;3.45;1.88;;;;;;;;;;5090564;28;20020;-70
2023/06/04 05:04:47;;;;;;;3.35;1.60;;;;;;;;;;5090560;28;20492;-70
2023/06/04 05:07:12;;;;;;;6.15;2.10;;;;;;;;;;5090600;28;20532;-71
2023/06/04 05:09:38;;;;;;;4.95;1.90;;;;;;;;;;5089803;28;20024;-70
2023/06/04 05:12:03;;;;;;;6.20;2.13;;;;;;;;;;5090538;28;20055;-68
2023/06/04 05:14:29;;;;;;;3.92;2.40;;;;;;;;;;5090290;28;20096;-69
2023/06/04 05:16:56;;;;;;;3.65;1.80;;;;;;;;;;5090060;28;20032;-61
2023/06/04 05:19:22;;;;;;;3.72;1.80;;;;;;;;;;5090333;28;20050;-67
2023/06/04 05:21:48;;;;;;;4.85;1.80;;;;;;;;;;5090272;28;20024;-68
2023/06/04 05:24:14;;;;;;;5.50;1.80;;;;;;;;;;5090477;28;20034;-67
2023/06/04 05:26:40;;;;;;;9.25;1.90;;;;;;;;;;5090308;28;20035;-63
2023/06/04 05:29:05;;;;;;;3.53;1.63;;;;;;;;;;5090167;28;20032;-69
2023/06/04 05:31:34;;;;;;;3.45;1.60;;;;;;;;;;5090410;28;20028;-67
2023/06/04 05:34:04;;;;;;;5.35;2.00;;;;;;;;;;5090173;28;20047;-65
2023/06/04 05:36:30;;;;;;;3.38;1.80;;;;;;;;;;5090303;28;20035;-70
2023/06/04 05:38:59;;;;;;;5.32;2.08;;;;;;;;;;5096909;28;20087;-70
2023/06/04 05:41:26;;;;;;;3.63;1.70;;;;;;;;;;5110582;28;20476;-66
2023/06/04 05:43:51;;;;;;;5.47;1.65;;;;;;;;;;5110396;28;20081;-67
2023/06/04 05:46:17;;;;;;;4.45;1.90;;;;;;;;;;5110389;28;20106;-61
2023/06/04 05:48:42;;;;;;;3.92;1.77;;;;;;;;;;5110471;28;20032;-67
2023/06/04 05:51:08;;;;;;;2.75;1.70;;;;;;;;;;5110538;28;20035;-65
2023/06/04 05:53:33;;;;;;;4.38;2.00;;;;;;;;;;5110498;28;20022;-63
2023/06/04 05:55:59;;;;;;;6.10;2.00;;;;;;;;;;5110403;28;20023;-63
2023/06/04 05:58:24;;;;;;;4.05;2.25;;;;;;;;;;5107729;28;20023;-65
2023/06/04 06:00:50;;;;;;;4.28;2.20;;;;;;;;;;5090258;28;20056;-67
2023/06/04 06:03:16;;;;;;;9.05;2.38;;;;;;;;;;5090271;28;20019;-67
2023/06/04 06:05:43;;;;;;;5.07;2.15;;;;;;;;;;5087095;28;20535;-68
2023/06/04 06:08:08;;;;;;;5.03;2.10;;;;;;;;;;5080522;28;20389;-70
2023/06/04 06:10:34;;;;;;;2.78;1.67;;;;;;;;;;5089964;28;20024;-67
2023/06/04 06:13:02;;;;;;;5.28;1.60;;;;;;;;;;5089968;28;20369;-69
2023/06/04 06:15:28;;;;;;;2.13;1.30;;;;;;;;;;5089802;28;20453;-72
2023/06/04 06:17:54;;;;;;;2.88;1.20;;;;;;;;;;5089750;28;20055;-70
2023/06/04 06:20:21;;;;;;;3.40;1.52;;;;;;;;;;5091364;28;20035;-71
2023/06/04 06:22:47;;;;;;;5.20;1.40;;;;;;;;;;5093472;28;20452;-72
2023/06/04 06:25:13;;;;;;;4.97;1.48;;;;;;;;;;5093465;28;20111;-72
2023/06/04 06:27:40;;;;;;;4.55;1.60;;;;;;;;;;5093276;28;20108;-72
2023/06/04 06:30:07;;;;;;;2.25;1.35;;;;;;;;;;5093387;28;20036;-70
2023/06/04 06:32:32;;;;;;;2.38;1.35;;;;;;;;;;5093161;28;20020;-69
2023/06/04 06:34:58;;;;;;;2.90;1.20;;;;;;;;;;5093233;28;20527;-69
2023/06/04 06:37:23;;;;;;;4.28;1.40;;;;;;;;;;5093145;28;20035;-71
2023/06/04 06:39:49;;;;;;;4.65;1.20;;;;;;;;;;5104653;28;20032;-71
2023/06/04 06:42:16;;;;;;;6.13;1.40;;;;;;;;;;5093297;28;20013;-66
2023/06/04 06:44:42;;;;;;;5.50;1.35;;;;;;;;;;5093235;28;20058;-69
2023/06/04 06:47:08;;;;;;;4.00;1.30;;;;;;;;;;5092954;28;20144;-68
2023/06/04 06:49:33;;;;;;;7.13;1.63;;;;;;;;;;5082272;28;20042;-69
2023/06/04 06:51:58;;;;;;;2.60;1.20;;;;;;;;;;5075464;28;20024;-71
2023/06/04 06:54:24;;;;;;;3.17;1.58;;;;;;;;;;5078424;28;20027;-70
2023/06/04 06:56:50;;;;;;;5.82;1.48;;;;;;;;;;5094838;28;20381;-69
2023/06/04 06:59:16;;;;;;;3.03;1.48;;;;;;;;;;5094782;28;20043;-70
2023/06/04 07:01:41;;;;;;;3.38;1.40;;;;;;;;;;5094823;28;20028;-70
2023/06/04 07:04:07;;;;;;;3.95;1.05;;;;;;;;;;5094680;28;20028;-70
2023/06/04 07:06:33;;;;;;;2.85;1.15;;;;;;;;;;5094660;28;20032;-68
2023/06/04 07:08:59;;;;;;;4.13;1.10;;;;;;;;;;5094157;28;20111;-69
2023/06/04 07:11:25;;;;;;;2.85;1.27;;;;;;;;;;5094770;28;20525;-70
2023/06/04 07:13:51;;;;;;;2.40;1.20;;;;;;;;;;5094411;28;20431;-69
2023/06/04 07:16:17;;;;;;;2.10;1.17;;;;;;;;;;5094399;28;20024;-70
2023/06/04 07:18:43;;;;;;;4.93;1.80;;;;;;;;;;5093948;28;20039;-69
2023/06/04 07:21:08;;;;;;;4.97;1.90;;;;;;;;;;5094487;28;20024;-70
2023/06/04 07:23:34;;;;;;;5.70;2.20;;;;;;;;;;5094108;28;20020;-71
2023/06/04 07:25:59;;;;;;;5.35;2.30;;;;;;;;;;5094129;28;20020;-71
2023/06/04 07:28:25;;;;;;;4.60;2.00;;;;;;;;;;5094238;28;20024;-70
2023/06/04 07:30:50;;;;;;;5.38;2.30;;;;;;;;;;5093864;28;20486;-69
2023/06/04 07:33:16;;;;;;;4.28;2.10;;;;;;;;;;5093601;28;20029;-69
2023/06/04 07:35:41;;;;;;;9.80;2.63;;;;;;;;;;5094122;28;20024;-71
2023/06/04 07:38:07;;;;;;;2.83;1.88;;;;;;;;;;5093577;28;20027;-72
2023/06/04 07:40:32;;;;;;;7.93;2.20;;;;;;;;;;5114470;28;20469;-69
2023/06/04 07:42:57;;;;;;;8.60;2.63;;;;;;;;;;5111478;28;20388;-68
2023/06/04 07:45:23;;;;;;;3.17;1.80;;;;;;;;;;5093893;28;20016;-68
2023/06/04 07:47:49;;;;;;;3.47;2.00;;;;;;;;;;5093650;28;20067;-69
2023/06/04 07:50:14;;;;;;;4.47;2.17;;;;;;;;;;5093700;28;20393;-70
2023/06/04 07:52:40;;;;;;;3.65;2.05;;;;;;;;;;5093340;28;20039;-68
2023/06/04 07:55:06;;;;;;;5.38;2.15;;;;;;;;;;5093648;28;20048;-62
2023/06/04 07:57:32;;;;;;;5.10;2.15;;;;;;;;;;5093584;28;20028;-71
2023/06/04 07:59:57;;;;;;;4.00;1.70;;;;;;;;;;5093432;28;20050;-71
2023/06/04 08:02:23;;;;;;;3.97;1.98;;;;;;;;;;5093272;28;20020;-69
2023/06/04 08:04:48;;;;;;;7.95;2.10;;;;;;;;;;5093438;28;20016;-71
2023/06/04 08:07:14;;;;;;;3.65;1.88;;;;;;;;;;5093258;28;20487;-68
2023/06/04 08:09:40;;;;;;;2.10;1.30;;;;;;;;;;5093435;28;20400;-67
2023/06/04 08:12:06;;;;;;;2.70;1.40;;;;;;;;;;5093263;28;20016;-71
2023/06/04 08:14:32;;;;;;;3.25;1.77;;;;;;;;;;5093193;28;20496;-71
2023/06/04 08:16:58;;;;;;;8.95;1.90;;;;;;;;;;5092750;28;20036;-70
2023/06/04 08:19:23;;;;;;;3.38;1.80;;;;;;;;;;5092985;28;20093;-66
2023/06/04 08:21:49;;;;;;;2.47;1.30;;;;;;;;;;5092981;28;20035;-71
2023/06/04 08:24:15;;;;;;;4.40;1.45;;;;;;;;;;5093036;28;20028;-71
2023/06/04 08:26:41;;;;;;;2.00;1.38;;;;;;;;;;5092933;28;20492;-71
2023/06/04 08:29:07;;;;;;;2.63;1.40;;;;;;;;;;5092916;28;20370;-68
2023/06/04 08:31:32;;;;;;;4.50;1.40;;;;;;;;;;5092993;28;20067;-70
2023/06/04 08:33:58;;;;;;;3.80;1.10;;;;;;;;;;5092763;28;20024;-71
2023/06/04 08:36:24;;;;;;;3.10;1.25;;;;;;;;;;5092560;28;20032;-69
2023/06/04 08:38:52;;;;;;;2.13;1.20;;;;;;;;;;5098881;28;20473;-70
2023/06/04 08:41:41;;;;;;;6.85;1.20;;;;;;;;;;5112851;28;20487;-64
2023/06/04 08:44:07;;;;;;;3.38;1.40;;;;;;;;;;5020522;28;20045;-63
2023/06/04 08:46:32;;;;;;;2.70;1.23;;;;;;;;;;5030158;28;20392;-63
2023/06/04 08:49:02;;;;;;;2.90;1.17;;;;;;;;;;5030478;28;20053;-69
2023/06/04 08:51:28;;;;;;;;;;;;;;;;;;5030599;28;20024;-65
2023/06/04 08:53:55;;;;;;;1.38;0.90;;;;;;;;;;5030121;28;19917;-67
2023/06/04 08:56:22;;;;;;;1.55;1.02;;;;;;;;;;5030279;28;20034;-68
2023/06/04 08:58:48;;;;;;;3.92;1.10;;;;;;;;;;5029823;28;20056;-70
2023/06/04 09:01:14;;;;;;;3.67;1.00;;;;;;;;;;5030243;28;20045;-69
2023/06/04 09:03:41;;;;;;;7.15;1.65;;;;;;;;;;5030127;28;20029;-68
2023/06/04 09:06:07;;;;;;;3.00;1.15;;;;;;;;;;5029694;28;20033;-69
2023/06/04 09:08:36;;;;;;;1.75;1.10;;;;;;;;;;5030285;28;20035;-60
2023/06/04 09:11:06;;;;;;;5.28;1.30;;;;;;;;;;5029939;28;20029;-66
2023/06/04 09:13:32;;;;;;;4.07;2.15;;;;;;;;;;5030078;28;20507;-69
2023/06/04 09:16:05;;;;;;;3.65;1.40;;;;;;;;;;5026962;28;20454;-70
2023/06/04 09:18:32;;;;;;;2.97;1.30;;;;;;;;;;5026072;28;20047;-69
2023/06/04 09:21:07;;;;;;;3.95;1.30;;;;;;;;;;5052535;28;20055;-70
2023/06/04 09:23:47;;;;;;;2.47;1.20;;;;;;;;;;5087878;28;20032;-71
2023/06/04 09:26:13;;;;;;;3.47;1.75;;;;;;;;;;5088224;28;20029;-65
2023/06/04 09:28:42;;;;;;;3.28;1.73;;;;;;;;;;5088346;28;20035;-69
2023/06/04 09:31:17;;;;;;;6.18;3.58;;;;;;;;;;5088632;28;20020;-71
2023/06/04 09:33:46;;;;;;;2.80;1.25;;;;;;;;;;5088039;28;20162;-66
2023/06/04 09:36:12;;;;;;;;;;;;;;;;;;5088322;28;20020;-70
2023/06/04 09:38:38;;;;;;;10.48;4.38;;;;;;;;;;5092251;28;20272;-70
2023/06/04 09:41:04;;;;;;;3.15;1.90;;;;;;;;;;5108593;28;20032;-70
2023/06/04 09:43:32;;;;;;;2.53;1.23;;;;;;;;;;5101120;28;20039;-60
2023/06/04 09:46:14;;;;;;;3.40;1.40;;;;;;;;;;5087890;28;20028;-66
2023/06/04 09:48:40;;;;;;;5.70;1.58;;;;;;;;;;5087775;28;20577;-69
2023/06/04 09:51:10;;;;;;;2.53;1.10;;;;;;;;;;5087699;28;20477;-70
2023/06/04 09:53:36;;;;;;;4.68;1.23;;;;;;;;;;5087344;28;20446;-69
2023/06/04 09:56:10;;;;;;;1.92;1.00;;;;;;;;;;5090774;28;20039;-68
2023/06/04 09:58:37;;;;;;;5.63;1.25;;;;;;;;;;5091742;28;20028;-69
2023/06/04 10:01:05;;;;;;;7.82;1.80;;;;;;;;;;5091773;28;20381;-69
2023/06/04 10:03:33;;;;;;;5.28;1.30;;;;;;;;;;5091642;28;20020;-67
2023/06/04 10:06:01;;;;;;;3.15;1.15;;;;;;;;;;5091914;28;20024;-61
2023/06/04 10:08:27;;;;;;;2.88;1.27;;;;;;;;;;5091989;28;20034;-61
2023/06/04 10:11:01;;;;;;;2.33;1.20;;;;;;;;;;5095607;28;20028;-61
2023/06/04 10:13:30;;;;;;;4.80;1.40;;;;;;;;;;5095839;28;20028;-64
2023/06/04 10:15:59;;;;;;;2.78;1.33;;;;;;;;;;5094392;28;20024;-63
2023/06/04 10:18:27;;;;;;;4.20;1.10;;;;;;;;;;5095258;28;20036;-63
2023/06/04 10:20:55;;;;;;;4.05;1.50;;;;;;;;;;5095470;28;20098;-63
2023/06/04 10:23:22;;;;;;;4.95;1.80;;;;;;;;;;5095598;28;20051;-64
2023/06/04 10:25:50;;;;;;;5.75;2.10;;;;;;;;;;5095467;28;20351;-60
2023/06/04 10:28:19;;;;;;;7.30;2.38;;;;;;;;;;5095393;28;20117;-62
2023/06/04 10:30:45;;;;;;;3.47;1.50;;;;;;;;;;5095328;28;20154;-63
2023/06/04 10:33:11;;;;;;;2.20;1.13;;;;;;;;;;5095182;28;20085;-61
2023/06/04 10:35:37;;;;;;;2.53;1.15;;;;;;;;;;5095257;28;20053;-61
2023/06/04 10:38:10;;;;;;;3.58;1.23;;;;;;;;;;5095003;28;20587;-60
2023/06/04 10:40:37;;;;;;;4.57;1.95;;;;;;;;;;5093993;28;20531;-62
2023/06/04 10:43:10;;;;;;;4.28;2.00;;;;;;;;;;5094992;28;20365;-62
2023/06/04 10:45:37;;;;;;;2.50;1.70;;;;;;;;;;5094924;28;20031;-61
2023/06/04 10:48:07;;;;;;;4.18;1.27;;;;;;;;;;5094547;28;20048;-61
2023/06/04 10:50:34;;;;;;;3.50;1.20;;;;;;;;;;5094895;28;20024;-61
2023/06/04 10:53:03;;;;;;;5.03;1.17;;;;;;;;;;5094912;28;20075;-61
2023/06/04 10:55:30;;;;;;;3.42;1.70;;;;;;;;;;5094658;28;20172;-61
2023/06/04 10:57:57;;;;;;;3.67;1.10;;;;;;;;;;5094654;28;20831;-62
2023/06/04 11:00:38;;;;;;;1.77;1.00;;;;;;;;;;5094525;28;20020;-60
2023/06/04 11:03:07;;;;;;;1.90;1.02;;;;;;;;;;5094462;28;20182;-61
2023/06/04 11:05:39;;;;;;;4.40;1.65;;;;;;;;;;5094529;28;20035;-61
2023/06/04 11:08:06;;;;;;;2.92;1.08;;;;;;;;;;5093783;28;20032;-60
2023/06/04 11:10:36;;;;;;;14.13;1.25;;;;;;;;;;5094756;28;20035;-61
2023/06/04 11:13:03;;;;;;;3.33;1.27;;;;;;;;;;5094566;28;20366;-61
2023/06/04 11:15:42;;;;;;;1.83;0.93;;;;;;;;;;5094360;28;20024;-62
2023/06/04 11:18:13;;;;;;;1.80;1.10;;;;;;;;;;5093373;28;20020;-64
2023/06/04 11:20:38;;;;;;;2.08;1.15;;;;;;;;;;5094481;28;20024;-67
2023/06/04 11:23:05;;;;;;;4.60;1.10;;;;;;;;;;5094348;28;20110;-72
2023/06/04 11:25:32;;;;;;;2.40;0.90;;;;;;;;;;5094401;28;20024;-65
2023/06/04 11:27:59;;;;;;;2.30;1.00;;;;;;;;;;5094304;28;20371;-68
2023/06/04 11:30:25;;;;;;;2.55;1.30;;;;;;;;;;5093760;28;20030;-71
2023/06/04 11:33:01;;;;;;;4.57;1.17;;;;;;;;;;5094361;28;20107;-72
2023/06/04 11:35:27;;;;;;;4.32;1.30;;;;;;;;;;5094353;28;20108;-71
2023/06/04 11:37:54;;;;;;;1.92;1.20;;;;;;;;;;5094077;28;20028;-67
2023/06/04 11:40:20;;;;;;;2.65;1.10;;;;;;;;;;5113069;28;20034;-72
2023/06/04 11:42:47;;;;;;;3.25;2.22;;;;;;;;;;5113168;28;20083;-72
2023/06/04 11:45:14;;;;;;;5.50;1.48;;;;;;;;;;5093789;28;20528;-73
2023/06/04 11:47:41;;;;;;;2.58;1.30;;;;;;;;;;5093599;28;20066;-71
2023/06/04 11:50:08;;;;;;;2.63;1.00;;;;;;;;;;5094249;28;20419;-73
2023/06/04 11:52:33;;;;;;;2.08;1.20;;;;;;;;;;5093698;28;20020;-72
2023/06/04 11:54:59;;;;;;;2.85;1.00;;;;;;;;;;5093698;28;20067;-72
2023/06/04 11:57:25;;;;;;;3.33;1.20;;;;;;;;;;5093526;28;20040;-70
2023/06/04 11:59:50;;;;;;;2.45;1.20;;;;;;;;;;5092289;28;20039;-72
2023/06/04 12:02:16;;;;;;;2.65;1.20;;;;;;;;;;5093684;28;20016;-65
2023/06/04 12:04:41;;;;;;;1.33;0.82;;;;;;;;;;5093683;28;20069;-62
2023/06/04 12:07:08;;;;;;;2.50;1.00;;;;;;;;;;5093473;28;20105;-62
2023/06/04 12:09:35;;;;;;;1.98;1.05;;;;;;;;;;5093469;28;20031;-65
2023/06/04 12:12:05;;;;;;;2.33;0.85;;;;;;;;;;5093228;28;20118;-62
2023/06/04 12:14:31;;;;;;;;;;;;;;;;;;5093444;28;20024;-61
2023/06/04 12:16:56;;;;;;;3.65;2.15;;;;;;;;;;5093110;28;20338;-61
2023/06/04 12:19:22;;;;;;;2.20;1.00;;;;;;;;;;5093131;28;20093;-71
2023/06/04 12:22:05;;;;;;;1.80;0.90;;;;;;;;;;5093191;28;20446;-70
2023/06/04 12:24:34;;;;;;;3.42;1.00;;;;;;;;;;5093378;28;20111;-71
2023/06/04 12:27:09;;;;;;;3.90;1.20;;;;;;;;;;5092943;28;20111;-66
2023/06/04 12:29:35;;;;;;;2.35;1.15;;;;;;;;;;5092951;28;20035;-61
2023/06/04 12:32:12;;;;;;;3.17;1.00;;;;;;;;;;5093038;28;20173;-72
2023/06/04 12:34:40;;;;;;;2.58;1.38;;;;;;;;;;5092859;28;20095;-61
2023/06/04 12:37:06;;;;;;;3.13;1.10;;;;;;;;;;5092962;28;20376;-61
2023/06/04 12:39:36;;;;;;;2.78;0.90;;;;;;;;;;5105125;28;20032;-64
2023/06/04 12:42:06;;;;;;;3.28;1.45;;;;;;;;;;5113291;28;20028;-64
2023/06/04 12:44:32;;;;;;;5.47;1.25;;;;;;;;;;5096951;28;20016;-67
2023/06/04 12:46:57;;;;;;;2.63;0.95;;;;;;;;;;5092664;28;20421;-62
2023/06/04 12:49:23;;;;;;;3.95;1.30;;;;;;;;;;5092754;28;20053;-67
2023/06/04 12:51:48;;;;;;;2.15;1.25;;;;;;;;;;5092365;28;20102;-70
2023/06/04 12:54:14;;;;;;;17.77;1.63;;;;;;;;;;5092410;28;20016;-71
2023/06/04 12:56:41;;;;;;;2.42;0.90;;;;;;;;;;5092717;28;20032;-62
2023/06/04 12:59:06;;;;;;;1.52;0.98;;;;;;;;;;5092469;28;20032;-62
2023/06/04 13:01:32;;;;;;;1.10;0.75;;;;;;;;;;5092680;28;20355;-65
2023/06/04 13:03:57;;;;;;;10.77;1.63;;;;;;;;;;5092604;28;20024;-61
2023/06/04 13:06:23;;;;;;;5.15;1.15;;;;;;;;;;5092514;28;20032;-62
2023/06/04 13:08:48;;;;;;;2.58;1.20;;;;;;;;;;5092659;28;20027;-67
2023/06/04 13:11:14;;;;;;;1.92;1.02;;;;;;;;;;5092667;28;20454;-62
2023/06/04 13:13:39;;;;;;;3.30;0.98;;;;;;;;;;5092389;28;20032;-62
2023/06/04 13:16:05;;;;;;;7.30;1.20;;;;;;;;;;5092428;28;20020;-62
2023/06/04 13:18:30;;;;;;;4.38;1.20;;;;;;;;;;5092427;28;20028;-62
2023/06/04 13:20:56;;;;;;;2.95;1.08;;;;;;;;;;5092488;28;20035;-60
2023/06/04 13:23:22;;;;;;;2.05;0.93;;;;;;;;;;5092143;28;20106;-63
2023/06/04 13:25:47;;;;;;;6.00;1.67;;;;;;;;;;5092090;28;20469;-66
2023/06/04 13:28:13;;;;;;;4.32;1.20;;;;;;;;;;5092377;28;20035;-66
2023/06/04 13:30:39;;;;;;;1.90;1.00;;;;;;;;;;5094494;28;20125;-61
2023/06/04 13:33:05;;;;;;;2.53;1.05;;;;;;;;;;5096624;28;20084;-63
2023/06/04 13:35:31;;;;;;;2.85;1.10;;;;;;;;;;5096783;28;20140;-66
2023/06/04 13:37:57;;;;;;;2.55;1.10;;;;;;;;;;5096353;28;20157;-61
2023/06/04 13:40:22;;;;;;;1.80;1.00;;;;;;;;;;5115630;28;20593;-59
2023/06/04 13:42:48;;;;;;;4.63;1.42;;;;;;;;;;5115293;28;20492;-60
2023/06/04 13:45:13;;;;;;;2.67;1.10;;;;;;;;;;5096422;28;20035;-61
2023/06/04 13:47:39;;;;;;;3.05;1.30;;;;;;;;;;5096031;28;20048;-61
2023/06/04 13:50:05;;;;;;;3.15;1.23;;;;;;;;;;5096192;28;20396;-61
2023/06/04 13:52:30;;;;;;;2.90;1.10;;;;;;;;;;5096013;28;20537;-62
2023/06/04 13:54:58;;;;;;;3.83;1.40;;;;;;;;;;5095342;28;20059;-60
2023/06/04 13:57:24;;;;;;;3.22;1.20;;;;;;;;;;5095970;28;20031;-62
2023/06/04 13:59:50;;;;;;;2.85;1.48;;;;;;;;;;5095931;28;20028;-61
2023/06/04 14:02:15;;;;;;;5.25;1.40;;;;;;;;;;5095907;28;20035;-59
2023/06/04 14:04:41;;;;;;;3.30;1.30;;;;;;;;;;5095826;28;20458;-70
2023/06/04 14:07:06;;;;;;;1.77;1.20;;;;;;;;;;5095956;28;20497;-70
2023/06/04 14:09:32;;;;;;;2.50;1.17;;;;;;;;;;5095557;28;20405;-70
2023/06/04 14:11:58;;;;;;;1.85;1.13;;;;;;;;;;5095749;28;20153;-69
2023/06/04 14:14:24;;;;;;;2.17;1.25;;;;;;;;;;5095802;28;20115;-70
2023/06/04 14:16:49;;;;;;;1.90;1.00;;;;;;;;;;5095745;28;20103;-70
2023/06/04 14:19:15;;;;;;;3.70;1.15;;;;;;;;;;5095792;28;20036;-67
2023/06/04 14:21:41;;;;;;;2.75;1.33;;;;;;;;;;5094381;28;20028;-62
2023/06/04 14:24:07;;;;;;;1.67;0.93;;;;;;;;;;5095023;28;20032;-69
2023/06/04 14:26:33;;;;;;;2.55;1.00;;;;;;;;;;5085511;28;20020;-69
2023/06/04 14:28:59;;;;;;;3.22;1.33;;;;;;;;;;5086699;28;20035;-69
2023/06/04 14:31:24;;;;;;;3.58;1.10;;;;;;;;;;5095512;28;20028;-69
2023/06/04 14:33:50;;;;;;;1.65;1.08;;;;;;;;;;5095335;28;20107;-67
2023/06/04 14:36:15;;;;;;;7.90;1.60;;;;;;;;;;5095152;28;20102;-71
2023/06/04 14:38:41;;;;;;;3.50;1.20;;;;;;;;;;5099713;28;20069;-69
2023/06/04 14:41:07;;;;;;;3.33;1.23;;;;;;;;;;5115430;28;20473;-62